createdAt,value
2017-04-17T00:00:54.352Z,1011.23
2017-04-17T00:02:03.709Z,1011.17
2017-04-17T00:03:14.238Z,1011.19
2017-04-17T00:04:24.533Z,1011.16
2017-04-17T00:05:34.827Z,1011.14
2017-04-17T00:06:44.814Z,1011.16
2017-04-17T00:07:54.794Z,1011.15
2017-04-17T00:09:05.341Z,1011.16
2017-04-17T00:10:15.625Z,1011.11
2017-04-17T00:11:25.631Z,1011.15
2017-04-17T00:12:35.908Z,1011.12
2017-04-17T00:13:46.198Z,1011.11
2017-04-17T00:14:56.433Z,1011.08
2017-04-17T00:16:06.714Z,1011.1
2017-04-17T00:17:16.378Z,1011.09
2017-04-17T00:18:26.657Z,1011.04
2017-04-17T00:19:36.645Z,1011.03
2017-04-17T00:20:46.863Z,1011.05
2017-04-17T00:21:57.178Z,1011
2017-04-17T00:23:07.454Z,1011.02
2017-04-17T00:24:17.730Z,1011.02
2017-04-17T00:25:27.083Z,1011.01
2017-04-17T00:26:37.615Z,1011
2017-04-17T00:27:48.341Z,1011.01
2017-04-17T00:28:58.753Z,1011.02
2017-04-17T00:30:08.730Z,1010.98
2017-04-17T00:31:19.013Z,1011.02
2017-04-17T00:32:29.233Z,1011
2017-04-17T00:33:39.228Z,1010.98
2017-04-17T00:34:49.528Z,1010.99
2017-04-17T00:35:59.809Z,1010.97
2017-04-17T00:37:10.125Z,1010.92
2017-04-17T00:38:20.670Z,1010.93
2017-04-17T00:39:30.645Z,1010.93
2017-04-17T00:40:40.926Z,1010.93
2017-04-17T00:41:50.269Z,1010.93
2017-04-17T00:43:00.235Z,1010.94
2017-04-17T00:44:10.775Z,1010.85
2017-04-17T00:45:21.062Z,1010.89
2017-04-17T00:46:31.347Z,1010.9
2017-04-17T00:47:41.631Z,1010.81
2017-04-17T00:48:51.601Z,1010.84
2017-04-17T00:50:02.131Z,1010.83
2017-04-17T00:51:12.404Z,1010.84
2017-04-17T00:52:22.369Z,1010.84
2017-04-17T00:53:32.349Z,1010.79
2017-04-17T00:54:42.520Z,1010.81
2017-04-17T00:55:53.048Z,1010.78
2017-04-17T00:57:03.319Z,1010.79
2017-04-17T00:58:13.497Z,1010.76
2017-04-17T00:59:23.181Z,1010.78
2017-04-17T01:00:33.597Z,1010.77
2017-04-17T01:01:44.136Z,1010.72
2017-04-17T01:02:54.418Z,1010.71
2017-04-17T01:04:04.715Z,1010.7
2017-04-17T01:05:15.000Z,1010.71
2017-04-17T01:06:24.668Z,1010.68
2017-04-17T01:07:34.939Z,1010.68
2017-04-17T01:08:45.229Z,1010.67
2017-04-17T01:09:54.891Z,1010.68
2017-04-17T01:11:04.864Z,1010.67
2017-04-17T01:12:15.149Z,1010.64
2017-04-17T01:13:25.731Z,1010.65
2017-04-17T01:14:36.025Z,1010.64
2017-04-17T01:15:46.309Z,1010.63
2017-04-17T01:16:56.603Z,1010.6
2017-04-17T01:18:06.893Z,1010.62
2017-04-17T01:19:17.116Z,1010.63
2017-04-17T01:20:27.094Z,1010.67
2017-04-17T01:21:37.072Z,1010.62
2017-04-17T01:22:47.041Z,1010.63
2017-04-17T01:23:57.017Z,1010.6
2017-04-17T01:25:07.605Z,1010.61
2017-04-17T01:26:17.895Z,1010.61
2017-04-17T01:27:27.855Z,1010.62
2017-04-17T01:28:37.832Z,1010.59
2017-04-17T01:29:48.110Z,1010.6
2017-04-17T01:30:58.717Z,1010.61
2017-04-17T01:32:08.704Z,1010.57
2017-04-17T01:33:18.996Z,1010.59
2017-04-17T01:34:29.279Z,1010.6
2017-04-17T01:35:39.579Z,1010.63
2017-04-17T01:36:49.806Z,1010.61
2017-04-17T01:38:00.082Z,1010.61
2017-04-17T01:39:10.375Z,1010.63
2017-04-17T01:40:20.665Z,1010.58
2017-04-17T01:41:30.940Z,1010.55
2017-04-17T01:42:40.899Z,1010.56
2017-04-17T01:43:51.201Z,1010.53
2017-04-17T01:45:01.487Z,1010.52
2017-04-17T01:46:11.775Z,1010.5
2017-04-17T01:47:22.064Z,1010.5
2017-04-17T01:48:32.288Z,1010.5
2017-04-17T01:49:42.559Z,1010.51
2017-04-17T01:50:52.528Z,1010.5
2017-04-17T01:52:02.497Z,1010.49
2017-04-17T01:53:12.774Z,1010.49
2017-04-17T01:54:23.356Z,1010.49
2017-04-17T01:55:33.604Z,1010.53
2017-04-17T01:56:43.590Z,1010.52
2017-04-17T01:57:53.429Z,1010.52
2017-04-17T01:59:03.998Z,1010.52
2017-04-17T02:00:14.530Z,1010.51
2017-04-17T02:01:24.497Z,1010.47
2017-04-17T02:02:34.784Z,1010.49
2017-04-17T02:03:44.767Z,1010.53
2017-04-17T02:04:54.762Z,1010.48
2017-04-17T02:06:05.311Z,1010.51
2017-04-17T02:07:14.969Z,1010.51
2017-04-17T02:08:25.242Z,1010.52
2017-04-17T02:09:35.525Z,1010.51
2017-04-17T02:10:45.802Z,1010.5
2017-04-17T02:11:56.030Z,1010.56
2017-04-17T02:13:05.997Z,1010.53
2017-04-17T02:14:15.970Z,1010.54
2017-04-17T02:15:26.264Z,1010.5
2017-04-17T02:16:36.556Z,1010.49
2017-04-17T02:17:47.096Z,1010.5
2017-04-17T02:18:57.408Z,1010.5
2017-04-17T02:20:07.727Z,1010.5
2017-04-17T02:21:18.038Z,1010.49
2017-04-17T02:22:28.013Z,1010.48
2017-04-17T02:23:38.275Z,1010.51
2017-04-17T02:24:48.558Z,1010.51
2017-04-17T02:25:58.759Z,1010.51
2017-04-17T02:27:08.735Z,1010.48
2017-04-17T02:28:19.022Z,1010.47
2017-04-17T02:29:29.606Z,1010.49
2017-04-17T02:30:39.893Z,1010.44
2017-04-17T02:31:50.189Z,1010.46
2017-04-17T02:33:00.478Z,1010.46
2017-04-17T02:34:10.765Z,1010.43
2017-04-17T02:35:21.292Z,1010.45
2017-04-17T02:36:30.634Z,1010.46
2017-04-17T02:37:40.929Z,1010.41
2017-04-17T02:38:51.206Z,1010.42
2017-04-17T02:40:01.182Z,1010.4
2017-04-17T02:41:11.399Z,1010.4
2017-04-17T02:42:21.682Z,1010.43
2017-04-17T02:43:31.959Z,1010.42
2017-04-17T02:44:41.928Z,1010.44
2017-04-17T02:45:52.218Z,1010.42
2017-04-17T02:47:02.430Z,1010.46
2017-04-17T02:48:12.713Z,1010.41
2017-04-17T02:49:23.004Z,1010.41
2017-04-17T02:50:33.289Z,1010.41
2017-04-17T02:51:43.249Z,1010.44
2017-04-17T02:52:53.784Z,1010.46
2017-04-17T02:54:03.746Z,1010.43
2017-04-17T02:55:13.730Z,1010.46
2017-04-17T02:56:24.019Z,1010.47
2017-04-17T02:57:33.992Z,1010.42
2017-04-17T02:58:44.215Z,1010.43
2017-04-17T02:59:54.516Z,1010.42
2017-04-17T03:01:04.498Z,1010.43
2017-04-17T03:02:14.455Z,1010.41
2017-04-17T03:03:24.130Z,1010.36
2017-04-17T03:04:34.396Z,1010.36
2017-04-17T03:05:44.692Z,1010.37
2017-04-17T03:06:55.002Z,1010.35
2017-04-17T03:08:05.288Z,1010.31
2017-04-17T03:09:15.589Z,1010.38
2017-04-17T03:10:25.838Z,1010.38
2017-04-17T03:11:36.114Z,1010.36
2017-04-17T03:12:46.399Z,1010.3
2017-04-17T03:13:56.375Z,1010.36
2017-04-17T03:15:06.042Z,1010.36
2017-04-17T03:16:16.308Z,1010.39
2017-04-17T03:17:26.591Z,1010.35
2017-04-17T03:18:36.571Z,1010.33
2017-04-17T03:19:46.867Z,1010.33
2017-04-17T03:20:57.152Z,1010.33
2017-04-17T03:22:07.676Z,1010.34
2017-04-17T03:23:17.956Z,1010.29
2017-04-17T03:24:28.242Z,1010.35
2017-04-17T03:25:38.521Z,1010.36
2017-04-17T03:26:48.794Z,1010.35
2017-04-17T03:27:58.748Z,1010.34
2017-04-17T03:29:09.107Z,1010.35
2017-04-17T03:30:19.070Z,1010.33
2017-04-17T03:31:29.350Z,1010.4
2017-04-17T03:32:39.634Z,1010.33
2017-04-17T03:33:50.157Z,1010.33
2017-04-17T03:35:00.437Z,1010.31
2017-04-17T03:36:10.719Z,1010.39
2017-04-17T03:37:20.991Z,1010.36
2017-04-17T03:38:31.001Z,1010.35
2017-04-17T03:39:41.588Z,1010.33
2017-04-17T03:40:51.553Z,1010.36
2017-04-17T03:42:01.526Z,1010.33
2017-04-17T03:43:11.814Z,1010.33
2017-04-17T03:44:22.103Z,1010.32
2017-04-17T03:45:33.001Z,1010.32
2017-04-17T03:46:43.286Z,1010.34
2017-04-17T03:47:53.572Z,1010.34
2017-04-17T03:49:03.851Z,1010.34
2017-04-17T03:50:13.505Z,1010.31
2017-04-17T03:51:24.043Z,1010.33
2017-04-17T03:52:34.327Z,1010.29
2017-04-17T03:53:44.303Z,1010.3
2017-04-17T03:54:54.285Z,1010.29
2017-04-17T03:56:04.364Z,1010.31
2017-04-17T03:57:14.579Z,1010.33
2017-04-17T03:58:24.917Z,1010.3
2017-04-17T03:59:34.901Z,1010.29
2017-04-17T04:00:45.180Z,1010.31
2017-04-17T04:01:55.460Z,1010.34
2017-04-17T04:03:05.983Z,1010.29
2017-04-17T04:04:16.271Z,1010.25
2017-04-17T04:05:26.241Z,1010.24
2017-04-17T04:06:36.205Z,1010.37
2017-04-17T04:07:46.173Z,1010.32
2017-04-17T04:08:56.446Z,1010.37
2017-04-17T04:10:06.415Z,1010.36
2017-04-17T04:11:16.690Z,1010.33
2017-04-17T04:12:26.662Z,1010.31
2017-04-17T04:13:36.633Z,1010.36
2017-04-17T04:14:47.181Z,1010.34
2017-04-17T04:15:57.150Z,1010.35
2017-04-17T04:17:07.121Z,1010.35
2017-04-17T04:18:17.407Z,1010.38
2017-04-17T04:19:27.699Z,1010.37
2017-04-17T04:20:38.247Z,1010.38
2017-04-17T04:21:48.523Z,1010.38
2017-04-17T04:22:58.183Z,1010.37
2017-04-17T04:24:08.478Z,1010.42
2017-04-17T04:25:18.448Z,1010.42
2017-04-17T04:26:28.668Z,1010.4
2017-04-17T04:27:38.647Z,1010.43
2017-04-17T04:28:48.935Z,1010.42
2017-04-17T04:29:58.897Z,1010.42
2017-04-17T04:31:08.934Z,1010.41
2017-04-17T04:32:18.987Z,1010.44
2017-04-17T04:33:29.265Z,1010.46
2017-04-17T04:34:39.345Z,1010.44
2017-04-17T04:35:49.336Z,1010.41
2017-04-17T04:36:59.631Z,1010.44
2017-04-17T04:38:09.896Z,1010.45
2017-04-17T04:39:20.175Z,1010.43
2017-04-17T04:40:30.156Z,1010.44
2017-04-17T04:41:40.465Z,1010.41
2017-04-17T04:42:50.433Z,1010.43
2017-04-17T04:44:00.965Z,1010.43
2017-04-17T04:45:11.250Z,1010.4
2017-04-17T04:46:20.912Z,1010.44
2017-04-17T04:47:31.198Z,1010.44
2017-04-17T04:48:41.500Z,1010.43
2017-04-17T04:49:51.736Z,1010.45
2017-04-17T04:51:01.707Z,1010.45
2017-04-17T04:52:11.993Z,1010.46
2017-04-17T04:53:22.271Z,1010.53
2017-04-17T04:54:32.560Z,1010.47
2017-04-17T04:55:43.148Z,1010.49
2017-04-17T04:56:53.432Z,1010.49
2017-04-17T04:58:03.722Z,1010.55
2017-04-17T04:59:13.694Z,1010.55
2017-04-17T05:00:23.978Z,1010.52
2017-04-17T05:01:34.508Z,1010.51
2017-04-17T05:02:43.853Z,1010.49
2017-04-17T05:03:53.970Z,1010.52
2017-04-17T05:05:03.952Z,1010.48
2017-04-17T05:06:14.244Z,1010.47
2017-04-17T05:07:24.503Z,1010.47
2017-04-17T05:08:34.786Z,1010.5
2017-04-17T05:09:44.756Z,1010.5
2017-04-17T05:10:55.033Z,1010.48
2017-04-17T05:12:05.323Z,1010.48
2017-04-17T05:13:15.850Z,1010.52
2017-04-17T05:14:26.139Z,1010.49
2017-04-17T05:15:36.422Z,1010.47
2017-04-17T05:16:46.701Z,1010.49
2017-04-17T05:17:56.978Z,1010.51
2017-04-17T05:19:07.563Z,1010.48
2017-04-17T05:20:17.860Z,1010.5
2017-04-17T05:21:28.141Z,1010.55
2017-04-17T05:22:38.106Z,1010.56
2017-04-17T05:23:48.388Z,1010.53
2017-04-17T05:24:58.606Z,1010.55
2017-04-17T05:26:08.572Z,1010.53
2017-04-17T05:27:18.225Z,1010.56
2017-04-17T05:28:28.508Z,1010.56
2017-04-17T05:29:38.784Z,1010.56
2017-04-17T05:30:49.315Z,1010.55
2017-04-17T05:31:59.591Z,1010.62
2017-04-17T05:33:09.241Z,1010.62
2017-04-17T05:34:19.212Z,1010.6
2017-04-17T05:35:29.688Z,1010.55
2017-04-17T05:36:40.387Z,1010.59
2017-04-17T05:37:50.603Z,1010.59
2017-04-17T05:39:00.586Z,1010.57
2017-04-17T05:40:11.043Z,1010.58
2017-04-17T05:41:21.327Z,1010.56
2017-04-17T05:42:31.284Z,1010.56
2017-04-17T05:43:41.571Z,1010.55
2017-04-17T05:44:51.852Z,1010.55
2017-04-17T05:46:02.141Z,1010.59
2017-04-17T05:47:12.111Z,1010.59
2017-04-17T05:48:22.647Z,1010.54
2017-04-17T05:49:32.927Z,1010.57
2017-04-17T05:50:43.214Z,1010.57
2017-04-17T05:51:53.492Z,1010.61
2017-04-17T05:53:03.476Z,1010.58
2017-04-17T05:54:13.747Z,1010.6
2017-04-17T05:55:23.718Z,1010.62
2017-04-17T05:56:33.701Z,1010.62
2017-04-17T05:57:43.977Z,1010.65
2017-04-17T05:58:53.951Z,1010.66
2017-04-17T06:00:04.175Z,1010.63
2017-04-17T06:01:14.453Z,1010.65
2017-04-17T06:02:24.731Z,1010.65
2017-04-17T06:03:34.709Z,1010.66
2017-04-17T06:04:44.679Z,1010.67
2017-04-17T06:05:55.211Z,1010.65
2017-04-17T06:07:05.488Z,1010.68
2017-04-17T06:08:15.456Z,1010.68
2017-04-17T06:09:25.438Z,1010.68
2017-04-17T06:10:35.740Z,1010.68
2017-04-17T06:11:46.194Z,1010.71
2017-04-17T06:12:56.180Z,1010.67
2017-04-17T06:14:06.167Z,1010.68
2017-04-17T06:15:16.551Z,1010.69
2017-04-17T06:16:26.823Z,1010.69
2017-04-17T06:17:37.350Z,1010.69
2017-04-17T06:18:47.637Z,1010.69
2017-04-17T06:19:57.917Z,1010.67
2017-04-17T06:21:08.206Z,1010.68
2017-04-17T06:22:18.186Z,1010.67
2017-04-17T06:23:28.724Z,1010.65
2017-04-17T06:24:39.020Z,1010.66
2017-04-17T06:25:48.996Z,1010.68
2017-04-17T06:26:59.275Z,1010.64
2017-04-17T06:28:09.245Z,1010.63
2017-04-17T06:29:19.473Z,1010.65
2017-04-17T06:30:29.762Z,1010.66
2017-04-17T06:31:39.735Z,1010.64
2017-04-17T06:32:50.023Z,1010.66
2017-04-17T06:33:59.993Z,1010.61
2017-04-17T06:35:10.590Z,1010.65
2017-04-17T06:36:20.876Z,1010.61
2017-04-17T06:37:30.842Z,1010.61
2017-04-17T06:38:41.127Z,1010.59
2017-04-17T06:39:51.624Z,1010.59
2017-04-17T06:41:02.147Z,1010.62
2017-04-17T06:42:12.488Z,1010.62
2017-04-17T06:43:22.774Z,1010.62
2017-04-17T06:44:33.059Z,1010.6
2017-04-17T06:45:43.035Z,1010.59
2017-04-17T06:46:53.454Z,1010.55
2017-04-17T06:48:03.738Z,1010.55
2017-04-17T06:49:13.740Z,1010.58
2017-04-17T06:50:24.028Z,1010.58
2017-04-17T06:51:34.315Z,1010.55
2017-04-17T06:52:44.840Z,1010.54
2017-04-17T06:53:55.134Z,1010.53
2017-04-17T06:55:05.415Z,1010.52
2017-04-17T06:56:15.397Z,1010.51
2017-04-17T06:57:25.378Z,1010.51
2017-04-17T06:58:35.289Z,1010.49
2017-04-17T06:59:45.255Z,1010.5
2017-04-17T07:00:55.232Z,1010.49
2017-04-17T07:02:05.511Z,1010.48
2017-04-17T07:03:15.491Z,1010.45
2017-04-17T07:04:26.019Z,1010.39
2017-04-17T07:05:36.000Z,1010.45
2017-04-17T07:06:46.311Z,1010.45
2017-04-17T07:07:56.592Z,1010.42
2017-04-17T07:09:06.250Z,1010.44
2017-04-17T07:10:16.786Z,1010.42
2017-04-17T07:11:27.073Z,1010.36
2017-04-17T07:12:37.357Z,1010.37
2017-04-17T07:13:47.649Z,1010.36
2017-04-17T07:14:57.627Z,1010.35
2017-04-17T07:16:08.166Z,1010.39
2017-04-17T07:17:18.161Z,1010.37
2017-04-17T07:18:28.136Z,1010.4
2017-04-17T07:19:38.262Z,1010.39
2017-04-17T07:20:48.631Z,1010.4
2017-04-17T07:21:58.859Z,1010.37
2017-04-17T07:23:09.150Z,1010.39
2017-04-17T07:24:19.127Z,1010.35
2017-04-17T07:25:29.417Z,1010.3
2017-04-17T07:26:39.698Z,1010.33
2017-04-17T07:27:49.991Z,1010.31
2017-04-17T07:29:00.278Z,1010.32
2017-04-17T07:30:10.570Z,1010.27
2017-04-17T07:31:20.555Z,1010.32
2017-04-17T07:32:30.846Z,1010.28
2017-04-17T07:33:41.377Z,1010.28
2017-04-17T07:34:51.703Z,1010.3
2017-04-17T07:36:01.984Z,1010.25
2017-04-17T07:37:12.266Z,1010.28
2017-04-17T07:38:21.930Z,1010.26
2017-04-17T07:39:32.161Z,1010.28
2017-04-17T07:40:42.144Z,1010.27
2017-04-17T07:41:52.109Z,1010.29
2017-04-17T07:43:02.394Z,1010.3
2017-04-17T07:44:12.679Z,1010.28
2017-04-17T07:45:22.924Z,1010.24
2017-04-17T07:46:32.614Z,1010.28
2017-04-17T07:47:42.898Z,1010.31
2017-04-17T07:48:53.183Z,1010.27
2017-04-17T07:50:02.854Z,1010.33
2017-04-17T07:51:13.444Z,1010.24
2017-04-17T07:52:23.733Z,1010.26
2017-04-17T07:53:34.034Z,1010.17
2017-04-17T07:54:44.338Z,1010.21
2017-04-17T07:55:54.630Z,1010.19
2017-04-17T07:57:05.165Z,1010.28
2017-04-17T07:58:15.476Z,1010.3
2017-04-17T07:59:25.471Z,1010.29
2017-04-17T08:00:35.766Z,1010.28
2017-04-17T08:01:46.048Z,1010.28
2017-04-17T08:02:56.636Z,1010.28
2017-04-17T08:04:06.619Z,1010.28
2017-04-17T08:05:16.592Z,1010.28
2017-04-17T08:06:26.871Z,1010.3
2017-04-17T08:07:37.164Z,1010.28
2017-04-17T08:08:47.441Z,1010.28
2017-04-17T08:09:57.747Z,1010.23
2017-04-17T08:11:08.030Z,1010.23
2017-04-17T08:12:18.007Z,1010.24
2017-04-17T08:13:28.289Z,1010.21
2017-04-17T08:14:38.838Z,1010.25
2017-04-17T08:15:49.119Z,1010.26
2017-04-17T08:16:59.095Z,1010.24
2017-04-17T08:18:09.373Z,1010.28
2017-04-17T08:19:19.047Z,1010.27
2017-04-17T08:20:29.594Z,1010.23
2017-04-17T08:21:39.568Z,1010.24
2017-04-17T08:22:49.854Z,1010.23
2017-04-17T08:24:00.056Z,1010.21
2017-04-17T08:25:10.340Z,1010.23
2017-04-17T08:26:20.928Z,1010.25
2017-04-17T08:27:31.220Z,1010.17
2017-04-17T08:28:41.206Z,1010.23
2017-04-17T08:29:51.182Z,1010.22
2017-04-17T08:31:01.484Z,1010.2
2017-04-17T08:32:11.706Z,1010.18
2017-04-17T08:33:21.677Z,1010.17
2017-04-17T08:34:31.974Z,1010.24
2017-04-17T08:35:42.276Z,1010.2
2017-04-17T08:36:52.559Z,1010.17
2017-04-17T08:38:03.167Z,1010.17
2017-04-17T08:39:13.459Z,1010.14
2017-04-17T08:40:23.461Z,1010.15
2017-04-17T08:41:33.746Z,1010.09
2017-04-17T08:42:44.039Z,1010.02
2017-04-17T08:43:54.326Z,1010.09
2017-04-17T08:45:04.610Z,1010.11
2017-04-17T08:46:14.586Z,1010.1
2017-04-17T08:47:24.902Z,1010.13
2017-04-17T08:48:34.692Z,1010.18
2017-04-17T08:49:44.932Z,1010.21
2017-04-17T08:50:55.230Z,1010.17
2017-04-17T08:52:05.509Z,1010.16
2017-04-17T08:53:15.168Z,1010.16
2017-04-17T08:54:25.166Z,1010.15
2017-04-17T08:55:35.399Z,1010.16
2017-04-17T08:56:45.677Z,1010.14
2017-04-17T08:57:56.304Z,1010.13
2017-04-17T08:59:06.783Z,1010.12
2017-04-17T09:00:17.065Z,1010.09
2017-04-17T09:01:27.354Z,1010.09
2017-04-17T09:02:37.638Z,1010.11
2017-04-17T09:03:47.622Z,1010.13
2017-04-17T09:04:57.931Z,1010.13
2017-04-17T09:06:08.223Z,1010.12
2017-04-17T09:07:18.812Z,1010.08
2017-04-17T09:08:29.094Z,1010.11
2017-04-17T09:09:39.088Z,1010.1
2017-04-17T09:10:49.385Z,1010.11
2017-04-17T09:11:58.727Z,1010.1
2017-04-17T09:13:09.013Z,1010.1
2017-04-17T09:14:18.993Z,1010.04
2017-04-17T09:15:29.288Z,1009.97
2017-04-17T09:16:39.587Z,1009.93
2017-04-17T09:17:49.882Z,1009.95
2017-04-17T09:19:00.436Z,1009.95
2017-04-17T09:20:10.437Z,1010
2017-04-17T09:21:20.733Z,1009.96
2017-04-17T09:22:30.713Z,1010.03
2017-04-17T09:23:41.010Z,1009.98
2017-04-17T09:24:51.245Z,1009.99
2017-04-17T09:26:01.567Z,1009.96
2017-04-17T09:27:11.868Z,1009.96
2017-04-17T09:28:21.536Z,1009.96
2017-04-17T09:29:31.824Z,1009.95
2017-04-17T09:30:42.440Z,1009.93
2017-04-17T09:31:52.418Z,1009.9
2017-04-17T09:33:02.735Z,1009.9
2017-04-17T09:34:12.750Z,1009.87
2017-04-17T09:35:23.154Z,1009.88
2017-04-17T09:36:33.543Z,1009.88
2017-04-17T09:37:44.051Z,1009.86
2017-04-17T09:38:54.164Z,1009.8
2017-04-17T09:40:04.458Z,1009.78
2017-04-17T09:41:14.121Z,1009.8
2017-04-17T09:42:24.355Z,1009.8
2017-04-17T09:43:34.021Z,1009.78
2017-04-17T09:44:44.324Z,1009.82
2017-04-17T09:45:54.604Z,1009.89
2017-04-17T09:47:04.891Z,1009.87
2017-04-17T09:48:15.429Z,1009.91
2017-04-17T09:49:25.420Z,1009.88
2017-04-17T09:50:35.727Z,1009.89
2017-04-17T09:51:45.734Z,1009.89
2017-04-17T09:52:55.725Z,1009.89
2017-04-17T09:54:06.270Z,1009.9
2017-04-17T09:55:16.567Z,1009.94
2017-04-17T09:56:26.541Z,1009.93
2017-04-17T09:57:36.840Z,1009.94
2017-04-17T09:58:46.824Z,1009.94
2017-04-17T09:59:57.376Z,1009.93
2017-04-17T10:01:07.050Z,1010.05
2017-04-17T10:02:17.356Z,1010.06
2017-04-17T10:03:27.349Z,1010.09
2017-04-17T10:04:37.342Z,1010.02
2017-04-17T10:05:47.576Z,1010.05
2017-04-17T10:06:57.589Z,1010.06
2017-04-17T10:08:07.897Z,1010.06
2017-04-17T10:09:18.205Z,1010.09
2017-04-17T10:10:28.508Z,1010.11
2017-04-17T10:11:38.792Z,1010.09
2017-04-17T10:12:49.095Z,1010.04
2017-04-17T10:13:59.094Z,1010.05
2017-04-17T10:15:09.398Z,1010.02
2017-04-17T10:16:19.749Z,1009.98
2017-04-17T10:17:29.673Z,1010.02
2017-04-17T10:18:39.364Z,1010.04
2017-04-17T10:19:49.672Z,1009.95
2017-04-17T10:20:59.973Z,1009.93
2017-04-17T10:22:09.979Z,1009.94
2017-04-17T10:23:20.539Z,1009.91
2017-04-17T10:24:30.852Z,1009.87
2017-04-17T10:25:40.849Z,1009.87
2017-04-17T10:26:50.521Z,1009.86
2017-04-17T10:28:00.513Z,1009.86
2017-04-17T10:29:11.125Z,1009.84
2017-04-17T10:30:21.434Z,1009.82
2017-04-17T10:31:31.746Z,1009.75
2017-04-17T10:32:42.049Z,1009.82
2017-04-17T10:33:52.051Z,1009.8
2017-04-17T10:35:02.610Z,1009.8
2017-04-17T10:36:12.914Z,1009.82
2017-04-17T10:37:23.223Z,1009.77
2017-04-17T10:38:33.212Z,1009.75
2017-04-17T10:39:43.232Z,1009.81
2017-04-17T10:40:53.817Z,1009.76
2017-04-17T10:42:03.810Z,1009.74
2017-04-17T10:43:14.118Z,1009.71
2017-04-17T10:44:24.132Z,1009.72
2017-04-17T10:45:33.868Z,1009.7
2017-04-17T10:46:44.421Z,1009.67
2017-04-17T10:47:54.719Z,1009.67
2017-04-17T10:49:04.854Z,1009.6
2017-04-17T10:50:14.547Z,1009.6
2017-04-17T10:51:25.020Z,1009.59
2017-04-17T10:52:35.767Z,1009.58
2017-04-17T10:53:45.803Z,1009.56
2017-04-17T10:54:56.178Z,1009.55
2017-04-17T10:56:06.176Z,1009.53
2017-04-17T10:57:15.907Z,1009.52
2017-04-17T10:58:26.471Z,1009.55
2017-04-17T10:59:36.786Z,1009.49
2017-04-17T11:00:46.792Z,1009.53
2017-04-17T11:01:57.111Z,1009.48
2017-04-17T11:03:07.095Z,1009.44
2017-04-17T11:04:17.729Z,1009.41
2017-04-17T11:05:27.420Z,1009.45
2017-04-17T11:06:37.718Z,1009.44
2017-04-17T11:07:48.082Z,1009.44
2017-04-17T11:08:58.394Z,1009.45
2017-04-17T11:10:08.697Z,1009.54
2017-04-17T11:11:18.719Z,1009.61
2017-04-17T11:12:28.721Z,1009.65
2017-04-17T11:13:39.040Z,1009.73
2017-04-17T11:14:49.376Z,1009.91
2017-04-17T11:15:59.985Z,1009.88
2017-04-17T11:17:10.310Z,1009.85
2017-04-17T11:18:20.643Z,1009.85
2017-04-17T11:19:30.670Z,1009.75
2017-04-17T11:20:40.674Z,1009.78
2017-04-17T11:21:51.260Z,1009.79
2017-04-17T11:23:01.001Z,1009.72
2017-04-17T11:24:11.504Z,1009.66
2017-04-17T11:25:21.930Z,1009.65
2017-04-17T11:26:32.374Z,1009.58
2017-04-17T11:27:43.079Z,1009.54
2017-04-17T11:28:53.355Z,1009.55
2017-04-17T11:30:03.763Z,1009.49
2017-04-17T11:31:13.125Z,1009.49
2017-04-17T11:32:23.143Z,1009.5
2017-04-17T11:33:33.738Z,1009.47
2017-04-17T11:34:43.771Z,1009.43
2017-04-17T11:35:54.103Z,1009.47
2017-04-17T11:37:04.433Z,1009.45
2017-04-17T11:38:14.457Z,1009.48
2017-04-17T11:39:25.141Z,1009.48
2017-04-17T11:40:35.453Z,1009.43
2017-04-17T11:41:45.489Z,1009.4
2017-04-17T11:42:55.508Z,1009.42
2017-04-17T11:44:05.507Z,1009.38
2017-04-17T11:45:15.473Z,1009.44
2017-04-17T11:46:25.794Z,1009.42
2017-04-17T11:47:35.503Z,1009.45
2017-04-17T11:48:45.822Z,1009.4
2017-04-17T11:49:55.860Z,1009.42
2017-04-17T11:51:06.125Z,1009.45
2017-04-17T11:52:16.435Z,1009.38
2017-04-17T11:53:26.589Z,1009.4
2017-04-17T11:54:36.905Z,1009.39
2017-04-17T11:55:47.238Z,1009.42
2017-04-17T11:56:57.805Z,1009.39
2017-04-17T11:58:07.827Z,1009.39
2017-04-17T11:59:17.513Z,1009.36
2017-04-17T12:00:27.509Z,1009.32
2017-04-17T12:01:37.193Z,1009.33
2017-04-17T12:02:47.784Z,1009.31
2017-04-17T12:03:58.110Z,1009.3
2017-04-17T12:05:08.138Z,1009.27
2017-04-17T12:06:18.563Z,1009.25
2017-04-17T12:07:29.162Z,1009.24
2017-04-17T12:08:40.003Z,1009.22
2017-04-17T12:09:50.440Z,1009.25
2017-04-17T12:11:00.925Z,1009.33
2017-04-17T12:12:11.247Z,1009.31
2017-04-17T12:13:21.584Z,1009.36
2017-04-17T12:14:32.217Z,1009.4
2017-04-17T12:15:42.225Z,1009.38
2017-04-17T12:16:52.551Z,1009.31
2017-04-17T12:18:02.261Z,1009.34
2017-04-17T12:19:12.266Z,1009.37
2017-04-17T12:20:22.843Z,1009.35
2017-04-17T12:21:33.182Z,1009.34
2017-04-17T12:22:43.178Z,1009.38
2017-04-17T12:23:53.539Z,1009.39
2017-04-17T12:25:03.858Z,1009.38
2017-04-17T12:26:14.509Z,1009.37
2017-04-17T12:27:24.825Z,1009.38
2017-04-17T12:28:34.557Z,1009.35
2017-04-17T12:29:44.913Z,1009.41
2017-04-17T12:30:55.242Z,1009.41
2017-04-17T12:32:05.877Z,1009.45
2017-04-17T12:33:16.215Z,1009.45
2017-04-17T12:34:26.581Z,1009.42
2017-04-17T12:35:36.579Z,1009.45
2017-04-17T12:36:46.603Z,1009.42
2017-04-17T12:37:56.861Z,1009.41
2017-04-17T12:39:06.891Z,1009.39
2017-04-17T12:40:16.305Z,1009.4
2017-04-17T12:41:26.314Z,1009.37
2017-04-17T12:42:36.911Z,1009.38
2017-04-17T12:43:46.918Z,1009.39
2017-04-17T12:44:57.458Z,1009.39
2017-04-17T12:46:07.457Z,1009.4
2017-04-17T12:47:17.972Z,1009.39
2017-04-17T12:48:28.440Z,1009.37
2017-04-17T12:49:39.051Z,1009.33
2017-04-17T12:50:49.057Z,1009.33
2017-04-17T12:51:59.390Z,1009.3
2017-04-17T12:53:09.423Z,1009.29
2017-04-17T12:54:19.163Z,1009.25
2017-04-17T12:55:29.733Z,1009.24
2017-04-17T12:56:40.084Z,1009.24
2017-04-17T12:57:50.431Z,1009.28
2017-04-17T12:59:00.754Z,1009.22
2017-04-17T13:00:11.087Z,1009.2
2017-04-17T13:01:21.670Z,1009.2
2017-04-17T13:02:32.003Z,1009.2
2017-04-17T13:03:41.992Z,1009.23
2017-04-17T13:04:52.005Z,1009.22
2017-04-17T13:06:02.349Z,1009.2
2017-04-17T13:07:12.949Z,1009.16
2017-04-17T13:08:23.309Z,1009.17
2017-04-17T13:09:32.981Z,1009.14
2017-04-17T13:10:43.299Z,1009.15
2017-04-17T13:11:53.301Z,1009.14
2017-04-17T13:13:03.567Z,1009.05
2017-04-17T13:14:13.576Z,1009.08
2017-04-17T13:15:23.898Z,1009.06
2017-04-17T13:16:33.915Z,1009.05
2017-04-17T13:17:43.340Z,1009.09
2017-04-17T13:18:53.632Z,1009.07
2017-04-17T13:20:03.647Z,1009.06
2017-04-17T13:21:13.648Z,1009.05
2017-04-17T13:22:23.970Z,1009.01
2017-04-17T13:23:34.281Z,1008.99
2017-04-17T13:24:44.541Z,1009.02
2017-04-17T13:25:54.874Z,1009.01
2017-04-17T13:27:04.568Z,1008.99
2017-04-17T13:28:14.558Z,1009
2017-04-17T13:29:23.939Z,1008.83
2017-04-17T13:30:34.558Z,1008.95
2017-04-17T13:31:44.892Z,1008.97
2017-04-17T13:32:54.885Z,1008.98
2017-04-17T13:34:04.583Z,1009.01
2017-04-17T13:35:14.908Z,1009.02
2017-04-17T13:36:25.166Z,1009.04
2017-04-17T13:37:35.164Z,1009
2017-04-17T13:38:45.495Z,1009.06
2017-04-17T13:39:55.530Z,1009.12
2017-04-17T13:41:05.520Z,1009.13
2017-04-17T13:42:16.206Z,1009.1
2017-04-17T13:43:26.207Z,1009.11
2017-04-17T13:44:36.586Z,1009.12
2017-04-17T13:45:46.922Z,1009.13
2017-04-17T13:46:56.916Z,1009.13
2017-04-17T13:48:07.236Z,1009.22
2017-04-17T13:49:17.546Z,1009.16
2017-04-17T13:50:27.589Z,1009.12
2017-04-17T13:51:37.899Z,1009.18
2017-04-17T13:52:48.230Z,1009.16
2017-04-17T13:53:58.494Z,1009.17
2017-04-17T13:55:08.823Z,1009.17
2017-04-17T13:56:19.145Z,1009.2
2017-04-17T13:57:29.475Z,1009.22
2017-04-17T13:58:39.820Z,1009.18
2017-04-17T13:59:50.432Z,1009.16
2017-04-17T14:01:00.801Z,1009.16
2017-04-17T14:02:11.339Z,1009.16
2017-04-17T14:03:21.682Z,1009.19
2017-04-17T14:04:31.740Z,1009.18
2017-04-17T14:05:41.719Z,1009.17
2017-04-17T14:06:51.723Z,1009.15
2017-04-17T14:08:02.036Z,1009.13
2017-04-17T14:09:12.372Z,1009.1
2017-04-17T14:10:22.457Z,1009.06
2017-04-17T14:11:33.150Z,1009.11
2017-04-17T14:12:43.148Z,1009.11